createdAt,value
2022-12-01T00:01:32.008Z,16.55
2022-12-01T00:03:58.777Z,18.77
2022-12-01T00:06:25.581Z,17.90
2022-12-01T00:09:17.965Z,17.48
2022-12-01T00:11:50.269Z,18.23
2022-12-01T00:14:17.348Z,18.73
2022-12-01T00:16:45.523Z,18.98
2022-12-01T00:19:12.352Z,17.17
2022-12-01T00:21:40.335Z,18.25
2022-12-01T00:24:11.272Z,16.67
2022-12-01T00:26:40.359Z,16.45
2022-12-01T00:29:08.342Z,14.05
2022-12-01T00:31:36.628Z,16.95
2022-12-01T00:34:10.800Z,15.43
2022-12-01T00:36:39.979Z,16.35
2022-12-01T00:39:09.485Z,16.27
2022-12-01T00:41:37.284Z,17.20
2022-12-01T00:44:04.312Z,17.60
2022-12-01T00:46:32.561Z,16.00
2022-12-01T00:49:00.529Z,17.40
2022-12-01T00:51:27.418Z,16.98
2022-12-01T00:53:55.362Z,15.63
2022-12-01T00:56:23.464Z,15.43
2022-12-01T00:58:50.196Z,12.60
2022-12-01T01:01:18.313Z,15.63
2022-12-01T01:03:46.624Z,13.73
2022-12-01T01:06:13.720Z,18.00
2022-12-01T01:08:42.474Z,14.65
2022-12-01T01:11:09.476Z,15.57
2022-12-01T01:13:37.003Z,17.90
2022-12-01T01:16:07.757Z,16.60
2022-12-01T01:18:34.957Z,15.95
2022-12-01T01:21:15.440Z,15.77
2022-12-01T01:23:43.675Z,18.50
2022-12-01T01:26:17.166Z,17.60
2022-12-01T01:28:46.620Z,18.23
2022-12-01T01:31:17.085Z,16.20
2022-12-01T01:33:45.398Z,15.75
2022-12-01T01:36:14.205Z,17.40
2022-12-01T01:38:42.593Z,17.17
2022-12-01T01:41:09.791Z,15.73
2022-12-01T01:43:48.248Z,15.65
2022-12-01T01:46:18.568Z,17.08
2022-12-01T01:48:54.458Z,15.65
2022-12-01T01:51:48.739Z,16.00
2022-12-01T01:54:23.750Z,14.50
2022-12-01T01:56:54.973Z,15.15
2022-12-01T01:59:29.872Z,15.18
2022-12-01T02:02:08.399Z,15.05
2022-12-01T02:04:39.213Z,18.02
2022-12-01T02:07:09.373Z,13.30
2022-12-01T02:09:36.539Z,13.73
2022-12-01T02:15:16.735Z,12.20
2022-12-01T02:18:11.411Z,12.32
2022-12-01T02:20:58.240Z,13.30
2022-12-01T02:23:48.299Z,15.15
2022-12-01T02:26:37.435Z,13.18
2022-12-01T02:29:35.627Z,13.52
2022-12-01T02:32:34.961Z,10.70
2022-12-01T02:35:09.427Z,12.30
2022-12-01T02:37:54.345Z,13.27
2022-12-01T02:40:30.409Z,16.42
2022-12-01T02:43:19.565Z,12.35
2022-12-01T02:45:56.207Z,14.02
2022-12-01T02:48:36.202Z,12.43
2022-12-01T02:51:28.894Z,14.57
2022-12-01T02:53:59.294Z,14.00
2022-12-01T02:56:26.361Z,10.68
2022-12-01T02:58:53.241Z,9.65
2022-12-01T03:01:52.145Z,11.35
2022-12-01T03:04:26.826Z,10.88
2022-12-01T03:07:19.536Z,8.80
2022-12-01T03:09:56.704Z,8.43
2022-12-01T03:12:44.277Z,7.65
2022-12-01T03:15:35.811Z,8.88
2022-12-01T03:18:21.868Z,7.93
2022-12-01T03:21:12.955Z,7.32
2022-12-01T03:23:47.164Z,8.00
2022-12-01T03:26:21.405Z,9.93
2022-12-01T03:29:00.349Z,9.70
2022-12-01T03:31:33.473Z,8.55
2022-12-01T03:34:11.051Z,7.88
2022-12-01T03:36:49.928Z,9.57
2022-12-01T03:39:23.258Z,7.68
2022-12-01T03:41:59.946Z,8.38
2022-12-01T03:44:41.383Z,9.05
2022-12-01T03:47:14.607Z,9.32
2022-12-01T03:49:43.977Z,8.68
2022-12-01T03:52:36.719Z,9.07
2022-12-01T03:55:23.018Z,9.82
2022-12-01T03:58:04.185Z,10.45
2022-12-01T04:00:33.786Z,10.98
2022-12-01T04:03:04.163Z,9.98
2022-12-01T04:05:32.869Z,9.77
2022-12-01T04:08:01.558Z,8.98
2022-12-01T04:10:28.429Z,8.10
2022-12-01T04:12:59.543Z,9.15
2022-12-01T04:15:27.560Z,8.48
2022-12-01T04:17:55.882Z,9.32
2022-12-01T04:20:22.972Z,9.98
2022-12-01T04:22:49.730Z,8.70
2022-12-01T04:25:19.274Z,8.73
2022-12-01T04:27:47.355Z,9.00
2022-12-01T04:30:14.350Z,7.50
2022-12-01T04:32:45.005Z,9.15
2022-12-01T04:35:13.279Z,8.63
2022-12-01T04:37:40.958Z,7.95
2022-12-01T04:40:11.337Z,9.05
2022-12-01T04:42:39.305Z,10.38
2022-12-01T04:45:06.499Z,9.30
2022-12-01T04:47:36.275Z,8.27
2022-12-01T04:50:05.664Z,10.27
2022-12-01T04:52:35.437Z,9.10
2022-12-01T04:55:03.492Z,8.05
2022-12-01T04:57:31.507Z,9.75
2022-12-01T04:59:58.319Z,7.45
2022-12-01T05:02:26.507Z,8.82
2022-12-01T05:04:55.008Z,7.72
2022-12-01T05:07:21.853Z,10.00
2022-12-01T05:09:50.447Z,11.95
2022-12-01T05:12:19.313Z,10.57
2022-12-01T05:14:48.119Z,10.35
2022-12-01T05:17:16.224Z,10.48
2022-12-01T05:20:04.693Z,10.23
2022-12-01T05:23:03.725Z,9.85
2022-12-01T05:25:21.118Z,12.35
2022-12-01T05:27:49.142Z,9.82
2022-12-01T05:30:17.275Z,10.23
2022-12-01T05:32:44.025Z,9.25
2022-12-01T05:35:12.803Z,11.57
2022-12-01T05:37:41.161Z,9.38
2022-12-01T05:40:09.963Z,10.82
2022-12-01T05:42:38.140Z,11.60
2022-12-01T05:45:05.295Z,12.30
2022-12-01T05:47:33.229Z,9.55
2022-12-01T05:50:05.506Z,12.23
2022-12-01T05:52:35.836Z,13.30
2022-12-01T05:55:04.224Z,11.40
2022-12-01T05:57:32.704Z,12.45
2022-12-01T06:00:01.269Z,11.50
2022-12-01T06:02:38.472Z,9.73
2022-12-01T06:05:05.863Z,11.18
2022-12-01T06:07:35.603Z,12.10
2022-12-01T06:10:02.850Z,11.90
2022-12-01T06:12:30.869Z,11.65
2022-12-01T06:14:59.302Z,13.57
2022-12-01T06:17:26.094Z,14.02
2022-12-01T06:19:52.828Z,13.55
2022-12-01T06:22:21.270Z,17.60
2022-12-01T06:24:47.987Z,14.52
2022-12-01T06:27:16.093Z,14.27
2022-12-01T06:29:44.268Z,13.35
2022-12-01T06:32:11.502Z,14.80
2022-12-01T06:34:38.334Z,15.25
2022-12-01T06:37:05.090Z,14.10
2022-12-01T06:39:31.983Z,15.48
2022-12-01T06:41:58.754Z,12.73
2022-12-01T06:44:25.606Z,15.82
2022-12-01T06:46:53.716Z,13.98
2022-12-01T06:49:20.707Z,15.15
2022-12-01T06:51:49.772Z,16.40
2022-12-01T06:54:17.850Z,12.07
2022-12-01T06:56:45.970Z,12.55
2022-12-01T06:59:14.305Z,14.25
2022-12-01T07:01:41.466Z,12.73
2022-12-01T07:04:08.335Z,12.23
2022-12-01T07:06:35.085Z,14.82
2022-12-01T07:09:03.761Z,14.57
2022-12-01T07:11:32.183Z,12.10
2022-12-01T07:13:59.052Z,15.57
2022-12-01T07:16:27.422Z,13.57
2022-12-01T07:18:57.137Z,11.95
2022-12-01T07:21:24.805Z,11.98
2022-12-01T07:23:51.641Z,17.20
2022-12-01T07:26:19.768Z,17.70
2022-12-01T07:28:46.532Z,11.52
2022-12-01T07:31:18.769Z,13.07
2022-12-01T07:33:46.904Z,13.73
2022-12-01T07:36:14.806Z,15.45
2022-12-01T07:38:41.898Z,14.75
2022-12-01T07:41:16.471Z,13.77
2022-12-01T07:43:43.458Z,15.40
2022-12-01T07:46:22.694Z,14.07
2022-12-01T07:48:56.728Z,15.10
2022-12-01T07:53:55.076Z,9.15
2022-12-01T07:56:22.872Z,9.82
2022-12-01T07:58:51.577Z,12.48
2022-12-01T08:01:22.793Z,9.85
2022-12-01T08:03:51.185Z,13.27
2022-12-01T08:06:18.867Z,10.88
2022-12-01T08:08:46.521Z,12.45
2022-12-01T08:11:16.374Z,27.48
2022-12-01T08:13:45.144Z,15.57
2022-12-01T08:16:19.627Z,12.98
2022-12-01T08:18:48.102Z,13.27
2022-12-01T08:21:19.430Z,12.88
2022-12-01T08:23:48.940Z,11.40
2022-12-01T08:26:20.083Z,11.75
2022-12-01T08:28:48.978Z,11.10
2022-12-01T08:31:20.665Z,11.30
2022-12-01T08:33:49.555Z,11.65
2022-12-01T08:36:17.467Z,9.85
2022-12-01T08:38:47.550Z,10.68
2022-12-01T08:41:15.362Z,12.45
2022-12-01T08:44:01.703Z,18.70
2022-12-01T08:46:35.108Z,16.10
2022-12-01T08:49:05.258Z,11.98
2022-12-01T08:51:32.566Z,12.98
2022-12-01T08:54:00.581Z,14.98
2022-12-01T08:56:32.338Z,15.35
2022-12-01T08:59:00.466Z,15.18
2022-12-01T09:01:29.162Z,30.70
2022-12-01T09:04:08.120Z,28.35
2022-12-01T09:06:45.242Z,18.73
2022-12-01T09:09:16.396Z,16.45
2022-12-01T09:11:45.990Z,16.73
2022-12-01T09:14:14.694Z,14.30
2022-12-01T09:16:44.656Z,12.43
2022-12-01T09:19:13.326Z,17.45
2022-12-01T09:21:43.349Z,14.57
2022-12-01T09:24:11.289Z,13.73
2022-12-01T09:26:39.013Z,12.23
2022-12-01T09:29:10.429Z,13.38
2022-12-01T09:31:38.952Z,12.20
2022-12-01T09:34:13.100Z,14.32
2022-12-01T09:36:40.226Z,14.38
2022-12-01T09:39:08.982Z,12.63
2022-12-01T09:41:45.125Z,13.63
2022-12-01T09:44:28.010Z,12.38
2022-12-01T09:47:26.463Z,12.95
2022-12-01T09:50:03.575Z,11.50
2022-12-01T09:52:38.790Z,13.75
2022-12-01T09:55:13.586Z,13.25
2022-12-01T09:57:43.617Z,12.13
2022-12-01T10:00:19.309Z,14.18
2022-12-01T10:03:15.072Z,12.95
2022-12-01T10:06:25.161Z,12.95
2022-12-01T10:08:46.682Z,12.60
2022-12-01T10:11:30.027Z,13.15
2022-12-01T10:13:58.129Z,13.95
2022-12-01T10:16:34.539Z,11.10
2022-12-01T10:19:16.450Z,12.30
2022-12-01T10:22:01.208Z,10.98
2022-12-01T10:24:27.976Z,12.05
2022-12-01T10:27:24.010Z,11.48
2022-12-01T10:30:18.693Z,11.63
2022-12-01T10:33:00.744Z,10.93
2022-12-01T10:35:36.116Z,11.13
2022-12-01T10:38:14.346Z,13.32
2022-12-01T10:40:44.173Z,12.13
2022-12-01T10:43:11.054Z,13.40
2022-12-01T10:45:45.136Z,14.10
2022-12-01T10:48:22.582Z,14.10
2022-12-01T10:50:56.878Z,12.45
2022-12-01T10:53:32.426Z,11.57
2022-12-01T10:56:05.826Z,13.30
2022-12-01T10:58:42.265Z,12.02
2022-12-01T11:01:20.582Z,11.50
2022-12-01T11:04:01.844Z,11.05
2022-12-01T11:06:30.458Z,13.32
2022-12-01T11:09:03.708Z,11.63
2022-12-01T11:11:33.549Z,12.05
2022-12-01T11:16:48.867Z,10.45
2022-12-01T11:19:30.949Z,12.43
2022-12-01T11:22:00.948Z,11.23
2022-12-01T11:24:56.365Z,11.90
2022-12-01T11:27:26.317Z,10.55
2022-12-01T11:29:59.064Z,9.77
2022-12-01T11:32:33.331Z,11.70
2022-12-01T11:35:05.892Z,30.33
2022-12-01T11:37:38.129Z,15.18
2022-12-01T11:40:13.621Z,11.85
2022-12-01T11:42:46.245Z,11.15
2022-12-01T11:45:40.026Z,14.20
2022-12-01T11:48:27.585Z,11.85
2022-12-01T11:51:21.610Z,10.75
2022-12-01T11:53:48.812Z,10.75
2022-12-01T11:56:17.915Z,9.25
2022-12-01T11:58:48.823Z,9.35
2022-12-01T12:01:29.237Z,18.27
2022-12-01T12:04:24.882Z,21.38
2022-12-01T12:07:18.905Z,12.77
2022-12-01T12:10:02.647Z,10.18
2022-12-01T12:12:41.186Z,10.52
2022-12-01T12:15:40.258Z,10.82
2022-12-01T12:18:14.136Z,8.98
2022-12-01T12:21:06.446Z,12.00
2022-12-01T12:23:53.389Z,12.13
2022-12-01T12:26:35.009Z,10.40
2022-12-01T12:29:28.224Z,11.30
2022-12-01T12:32:26.031Z,10.75
2022-12-01T12:35:04.616Z,11.80
2022-12-01T12:37:41.862Z,12.02
2022-12-01T12:40:47.100Z,11.60
2022-12-01T12:43:56.308Z,11.23
2022-12-01T12:46:57.829Z,11.93
2022-12-01T12:49:30.447Z,12.40
2022-12-01T12:52:07.799Z,11.93
2022-12-01T12:55:19.470Z,13.50
2022-12-01T12:57:55.098Z,9.88
2022-12-01T13:00:26.131Z,11.38
2022-12-01T13:05:28.645Z,9.20
2022-12-01T13:08:23.098Z,10.75
2022-12-01T13:11:04.500Z,12.65
2022-12-01T13:14:06.992Z,13.30
2022-12-01T13:16:41.736Z,11.45
2022-12-01T13:19:16.360Z,11.32
2022-12-01T13:21:46.861Z,11.45
2022-12-01T13:24:23.401Z,11.40
2022-12-01T13:27:11.747Z,10.38
2022-12-01T13:29:46.487Z,10.20
2022-12-01T13:32:32.039Z,9.93
2022-12-01T13:35:03.098Z,9.57
2022-12-01T13:37:38.295Z,10.50
2022-12-01T13:40:20.160Z,14.02
2022-12-01T13:43:20.348Z,13.02
2022-12-01T13:45:49.514Z,12.23
2022-12-01T13:48:27.430Z,11.43
2022-12-01T13:50:57.411Z,9.68
2022-12-01T13:53:34.384Z,9.40
2022-12-01T13:56:03.991Z,9.95
2022-12-01T13:58:32.784Z,11.07
2022-12-01T14:01:23.165Z,11.65
2022-12-01T14:04:01.155Z,10.15
2022-12-01T14:06:46.390Z,9.25
2022-12-01T14:09:21.965Z,11.10
2022-12-01T14:12:01.886Z,9.68
2022-12-01T14:14:37.240Z,9.80
2022-12-01T14:17:05.931Z,10.23
2022-12-01T14:19:32.630Z,11.70
2022-12-01T14:22:01.199Z,10.98
2022-12-01T14:24:43.524Z,12.40
2022-12-01T14:27:12.067Z,11.20
2022-12-01T14:29:44.247Z,12.55
2022-12-01T14:32:17.964Z,12.45
2022-12-01T14:34:45.383Z,12.70
2022-12-01T14:37:19.029Z,12.40
2022-12-01T14:40:05.927Z,11.65
2022-12-01T14:42:58.211Z,11.35
2022-12-01T14:45:40.262Z,11.32
2022-12-01T14:48:21.173Z,9.00
2022-12-01T14:50:51.281Z,10.25
2022-12-01T14:53:27.119Z,14.00
2022-12-01T14:55:59.359Z,12.02
2022-12-01T14:58:33.038Z,12.07
2022-12-01T15:01:08.301Z,11.63
2022-12-01T15:03:47.188Z,12.88
2022-12-01T15:06:23.397Z,11.43
2022-12-01T15:09:33.981Z,9.65
2022-12-01T15:12:09.082Z,9.15
2022-12-01T15:14:46.945Z,13.15
2022-12-01T15:17:33.434Z,10.07
2022-12-01T15:20:01.754Z,11.88
2022-12-01T15:22:31.206Z,9.43
2022-12-01T15:25:34.917Z,11.23
2022-12-01T15:28:35.243Z,12.65
2022-12-01T15:31:09.791Z,11.70
2022-12-01T15:33:39.693Z,10.52
2022-12-01T15:36:07.770Z,10.75
2022-12-01T15:38:37.088Z,10.73
2022-12-01T15:41:28.520Z,8.15
2022-12-01T15:43:56.955Z,8.55
2022-12-01T15:46:29.497Z,11.32
2022-12-01T15:49:32.755Z,10.27
2022-12-01T15:52:12.259Z,9.82
2022-12-01T15:54:40.867Z,7.80
2022-12-01T15:57:09.129Z,10.95
2022-12-01T15:59:44.328Z,9.20
2022-12-01T16:02:20.405Z,12.15
2022-12-01T16:04:49.808Z,12.13
2022-12-01T16:07:16.814Z,14.20
2022-12-01T16:09:59.378Z,16.15
2022-12-01T16:12:32.133Z,11.27
2022-12-01T16:15:11.205Z,11.02
2022-12-01T16:17:48.246Z,10.07
2022-12-01T16:20:35.974Z,10.85
2022-12-01T16:23:11.035Z,12.05
2022-12-01T16:25:43.293Z,9.68
2022-12-01T16:28:35.710Z,10.93
2022-12-01T16:36:06.505Z,7.13
2022-12-01T16:38:34.736Z,9.88
2022-12-01T16:41:13.955Z,8.05
2022-12-01T16:43:59.126Z,11.52
2022-12-01T16:46:30.124Z,11.10
2022-12-01T16:48:58.178Z,9.55
2022-12-01T16:51:35.613Z,12.20
2022-12-01T16:54:17.032Z,14.13
2022-12-01T16:56:43.832Z,13.57
2022-12-01T16:59:11.830Z,11.05
2022-12-01T17:01:40.074Z,11.45
2022-12-01T17:04:07.936Z,10.25
2022-12-01T17:06:35.849Z,10.82
2022-12-01T17:09:02.596Z,9.55
2022-12-01T17:11:31.016Z,9.90
2022-12-01T17:13:57.778Z,10.57
2022-12-01T17:16:26.023Z,10.52
2022-12-01T17:18:54.256Z,10.90
2022-12-01T17:21:21.090Z,9.52
2022-12-01T17:23:49.114Z,12.07
2022-12-01T17:26:19.064Z,11.70
2022-12-01T17:28:46.846Z,11.07
2022-12-01T17:31:15.180Z,12.82
2022-12-01T17:33:43.106Z,10.63
2022-12-01T17:36:14.529Z,11.05
2022-12-01T17:38:44.702Z,11.25
2022-12-01T17:41:17.429Z,9.75
2022-12-01T17:43:45.442Z,9.35
2022-12-01T17:46:13.018Z,11.90
2022-12-01T17:48:43.214Z,15.52
2022-12-01T17:51:12.643Z,13.97
2022-12-01T17:53:41.172Z,11.88
2022-12-01T17:56:10.122Z,12.35
2022-12-01T17:58:37.610Z,10.23
2022-12-01T18:01:06.869Z,10.30
2022-12-01T18:03:35.167Z,8.50
2022-12-01T18:06:02.546Z,9.25
2022-12-01T18:08:31.642Z,12.07
2022-12-01T18:11:08.942Z,19.48
2022-12-01T18:13:47.045Z,17.98
2022-12-01T18:16:18.263Z,11.95
2022-12-01T18:18:46.655Z,10.80
2022-12-01T18:21:15.673Z,11.95
2022-12-01T18:23:52.825Z,11.32
2022-12-01T18:26:22.302Z,11.90
2022-12-01T18:29:01.016Z,9.75
2022-12-01T18:31:30.345Z,11.35
2022-12-01T18:34:02.646Z,11.95
2022-12-01T18:36:34.639Z,11.48
2022-12-01T18:39:04.434Z,13.77
2022-12-01T18:41:31.580Z,12.13
2022-12-01T18:44:01.635Z,12.27
2022-12-01T18:46:30.602Z,10.90
2022-12-01T18:49:01.940Z,11.13
2022-12-01T18:51:33.001Z,10.20
2022-12-01T18:54:02.089Z,20.02
2022-12-01T18:56:29.547Z,15.80
2022-12-01T18:59:01.962Z,11.27
2022-12-01T19:01:33.257Z,12.48
2022-12-01T19:04:01.117Z,9.40
2022-12-01T19:06:30.027Z,8.93
2022-12-01T19:09:00.135Z,10.18
2022-12-01T19:11:28.779Z,9.40
2022-12-01T19:13:57.917Z,8.18
2022-12-01T19:16:25.046Z,8.90
2022-12-01T19:18:53.924Z,9.18
2022-12-01T19:21:22.731Z,7.93
2022-12-01T19:23:52.917Z,10.57
2022-12-01T19:26:22.208Z,12.50
2022-12-01T19:28:50.918Z,8.95
2022-12-01T19:31:23.387Z,9.23
2022-12-01T19:33:52.567Z,8.43
2022-12-01T19:36:23.136Z,8.33
2022-12-01T19:38:52.445Z,7.93
2022-12-01T19:41:20.996Z,6.00
2022-12-01T19:43:48.365Z,7.68
2022-12-01T19:46:19.702Z,7.57
2022-12-01T19:53:12.221Z,7.45
2022-12-01T19:55:39.343Z,6.45
2022-12-01T19:58:06.109Z,8.00
2022-12-01T20:00:32.904Z,8.65
2022-12-01T20:03:00.445Z,9.38
2022-12-01T20:05:27.620Z,11.80
2022-12-01T20:07:54.421Z,51.17
2022-12-01T20:10:21.278Z,15.35
2022-12-01T20:12:48.273Z,9.23
2022-12-01T20:15:15.904Z,7.60
2022-12-01T20:17:43.128Z,7.25
2022-12-01T20:20:11.476Z,8.68
2022-12-01T20:22:38.588Z,9.23
2022-12-01T20:25:10.597Z,9.45
2022-12-01T20:27:37.799Z,8.27
2022-12-01T20:30:05.403Z,7.60
2022-12-01T20:32:33.359Z,7.90
2022-12-01T20:35:00.216Z,9.10
2022-12-01T20:37:27.014Z,6.88
2022-12-01T20:39:53.823Z,8.45
2022-12-01T20:42:22.262Z,6.80
2022-12-01T20:44:49.274Z,6.93
2022-12-01T20:47:18.673Z,6.50
2022-12-01T20:49:45.525Z,7.35
2022-12-01T20:52:12.296Z,8.60
2022-12-01T20:54:39.317Z,6.65
2022-12-01T20:57:06.224Z,8.77
2022-12-01T20:59:34.810Z,7.20
2022-12-01T21:02:01.817Z,8.38
2022-12-01T21:04:28.610Z,7.90
2022-12-01T21:06:57.216Z,7.82
2022-12-01T21:09:24.418Z,7.25
2022-12-01T21:12:10.340Z,9.05
2022-12-01T21:14:44.437Z,8.00
2022-12-01T21:17:35.152Z,8.32
2022-12-01T21:20:08.780Z,9.07
2022-12-01T21:22:36.431Z,7.07
2022-12-01T21:25:11.987Z,9.07
2022-12-01T21:27:38.887Z,7.90
2022-12-01T21:30:16.910Z,9.18
2022-12-01T21:32:45.539Z,7.93
2022-12-01T21:35:22.595Z,6.47
2022-12-01T21:37:50.717Z,7.30
2022-12-01T21:40:25.648Z,6.43
2022-12-01T21:42:52.822Z,7.80
2022-12-01T21:45:27.305Z,5.78
2022-12-01T21:48:00.864Z,4.75
2022-12-01T21:50:27.865Z,7.72
2022-12-01T21:52:54.740Z,7.70
2022-12-01T21:55:21.606Z,6.57
2022-12-01T21:57:50.160Z,6.22
2022-12-01T22:00:36.987Z,7.35
2022-12-01T22:03:09.789Z,6.25
2022-12-01T22:06:01.436Z,6.13
2022-12-01T22:08:38.252Z,5.85
2022-12-01T22:11:14.899Z,6.53
2022-12-01T22:13:44.937Z,7.80
2022-12-01T22:16:15.733Z,6.85
2022-12-01T22:18:47.456Z,7.05
2022-12-01T22:21:23.476Z,7.55
2022-12-01T22:23:57.168Z,7.20
2022-12-01T22:26:25.143Z,5.88
2022-12-01T22:28:56.042Z,5.70
2022-12-01T22:31:23.068Z,7.40
2022-12-01T22:34:03.113Z,5.97
2022-12-01T22:36:33.297Z,5.95
2022-12-01T22:39:00.819Z,5.47
2022-12-01T22:41:28.709Z,5.55
2022-12-01T22:43:56.986Z,5.65
2022-12-01T22:46:38.165Z,5.40
2022-12-01T22:51:46.792Z,4.95
2022-12-01T22:54:16.352Z,5.22
2022-12-01T22:57:01.897Z,5.20
2022-12-01T22:59:36.229Z,6.63
2022-12-01T23:02:25.012Z,5.22
2022-12-01T23:04:58.660Z,5.10
2022-12-01T23:07:37.893Z,6.43
2022-12-01T23:10:06.562Z,6.38
2022-12-01T23:12:35.772Z,6.10
2022-12-01T23:15:34.745Z,6.15
2022-12-01T23:18:29.606Z,5.97
2022-12-01T23:20:58.500Z,5.20
2022-12-01T23:23:37.206Z,6.93
2022-12-01T23:26:07.492Z,7.95
2022-12-01T23:28:38.900Z,7.70
2022-12-01T23:31:05.960Z,5.70
2022-12-01T23:33:34.988Z,5.32
2022-12-01T23:36:25.775Z,7.10
2022-12-01T23:38:57.425Z,6.65
2022-12-01T23:41:35.641Z,8.20
2022-12-01T23:44:11.832Z,6.72
2022-12-01T23:46:38.782Z,5.53
2022-12-01T23:49:12.828Z,5.95
2022-12-01T23:51:45.366Z,6.80
2022-12-01T23:54:29.982Z,6.80
2022-12-01T23:57:05.463Z,5.68
2022-12-01T23:59:36.895Z,6.82
